createdAt,value
2022-10-09T00:00:26.262Z,7.20
2022-10-09T00:02:53.041Z,7.20
2022-10-09T00:05:21.330Z,7.20
2022-10-09T00:07:48.200Z,7.20
2022-10-09T00:10:15.187Z,7.10
2022-10-09T00:12:41.992Z,7.00
2022-10-09T00:15:08.963Z,7.00
2022-10-09T00:17:35.777Z,7.00
2022-10-09T00:20:02.985Z,7.00
2022-10-09T00:22:29.829Z,7.00
2022-10-09T00:24:56.674Z,7.00
2022-10-09T00:27:23.719Z,7.00
2022-10-09T00:29:51.070Z,7.00
2022-10-09T00:32:18.158Z,7.00
2022-10-09T00:34:44.970Z,7.10
2022-10-09T00:37:11.799Z,7.20
2022-10-09T00:39:38.799Z,7.10
2022-10-09T00:42:05.639Z,7.00
2022-10-09T00:44:47.667Z,6.80
2022-10-09T00:47:29.607Z,7.00
2022-10-09T00:50:08.160Z,7.10
2022-10-09T00:52:35.099Z,7.10
2022-10-09T00:55:02.748Z,6.90
2022-10-09T00:57:31.198Z,6.80
2022-10-09T00:59:58.623Z,6.80
2022-10-09T01:02:25.494Z,6.80
2022-10-09T01:04:52.305Z,6.90
2022-10-09T01:07:25.158Z,6.90
2022-10-09T01:09:57.157Z,6.70
2022-10-09T01:12:26.871Z,6.60
2022-10-09T01:15:07.815Z,6.50
2022-10-09T01:17:53.563Z,6.50
2022-10-09T01:20:39.037Z,6.40
2022-10-09T01:23:35.151Z,6.50
2022-10-09T01:26:20.868Z,6.40
2022-10-09T01:28:51.400Z,6.40
2022-10-09T01:31:18.987Z,6.50
2022-10-09T01:33:46.576Z,6.40
2022-10-09T01:36:13.954Z,6.40
2022-10-09T01:38:41.395Z,6.40
2022-10-09T01:41:08.570Z,6.40
2022-10-09T01:43:35.453Z,6.50
2022-10-09T01:46:20.784Z,6.40
2022-10-09T01:48:50.271Z,6.40
2022-10-09T01:51:18.636Z,6.30
2022-10-09T01:53:46.003Z,6.30
2022-10-09T01:56:14.736Z,6.30
2022-10-09T01:58:44.316Z,6.10
2022-10-09T02:01:13.974Z,6.10
2022-10-09T02:03:41.996Z,6.10
2022-10-09T02:06:11.958Z,6.10
2022-10-09T02:08:39.755Z,6.10
2022-10-09T02:11:06.709Z,6.00
2022-10-09T02:13:34.974Z,6.00
2022-10-09T02:16:04.660Z,6.20
2022-10-09T02:18:36.054Z,6.10
2022-10-09T02:21:06.690Z,6.10
2022-10-09T02:23:33.939Z,6.00
2022-10-09T02:26:00.995Z,5.90
2022-10-09T02:28:27.922Z,5.90
2022-10-09T02:31:01.714Z,5.80
2022-10-09T02:33:32.592Z,5.80
2022-10-09T02:35:59.551Z,5.90
2022-10-09T02:38:26.615Z,5.90
2022-10-09T02:41:00.019Z,5.90
2022-10-09T02:43:27.074Z,5.80
2022-10-09T02:45:54.147Z,5.70
2022-10-09T02:48:21.586Z,5.70
2022-10-09T02:50:48.354Z,5.80
2022-10-09T02:53:15.137Z,5.80
2022-10-09T02:55:41.993Z,5.70
2022-10-09T02:58:08.939Z,5.80
2022-10-09T03:00:37.536Z,5.70
2022-10-09T03:03:04.403Z,5.70
2022-10-09T03:05:31.244Z,5.70
2022-10-09T03:07:58.735Z,5.80
2022-10-09T03:10:25.596Z,5.70
2022-10-09T03:12:52.426Z,5.70
2022-10-09T03:15:19.204Z,5.60
2022-10-09T03:17:46.176Z,5.60
2022-10-09T03:20:12.992Z,5.60
2022-10-09T03:22:39.840Z,5.60
2022-10-09T03:25:07.052Z,5.50
2022-10-09T03:27:33.856Z,5.60
2022-10-09T03:30:00.715Z,5.60
2022-10-09T03:32:27.603Z,5.60
2022-10-09T03:34:54.507Z,5.50
2022-10-09T03:37:21.323Z,5.60
2022-10-09T03:39:48.151Z,5.60
2022-10-09T03:42:15.061Z,5.60
2022-10-09T03:44:41.918Z,5.70
2022-10-09T03:47:08.766Z,5.70
2022-10-09T03:49:35.654Z,5.70
2022-10-09T03:52:02.509Z,5.70
2022-10-09T03:54:29.663Z,5.70
2022-10-09T03:56:56.449Z,5.70
2022-10-09T03:59:23.317Z,5.70
2022-10-09T04:01:50.161Z,5.70
2022-10-09T04:04:17.045Z,5.70
2022-10-09T04:06:43.870Z,5.70
2022-10-09T04:09:10.832Z,5.60
2022-10-09T04:11:37.680Z,5.50
2022-10-09T04:14:04.607Z,5.50
2022-10-09T04:16:31.597Z,5.50
2022-10-09T04:18:58.483Z,5.40
2022-10-09T04:21:25.398Z,5.30
2022-10-09T04:23:52.694Z,5.20
2022-10-09T04:26:19.737Z,5.30
2022-10-09T04:28:46.666Z,5.20
2022-10-09T04:31:13.630Z,5.10
2022-10-09T04:33:40.543Z,5.10
2022-10-09T04:36:07.703Z,5.00
2022-10-09T04:38:35.337Z,5.10
2022-10-09T04:41:03.706Z,5.10
2022-10-09T04:43:30.995Z,5.10
2022-10-09T04:45:57.922Z,5.10
2022-10-09T04:48:25.239Z,5.00
2022-10-09T04:50:52.088Z,5.00
2022-10-09T04:53:18.971Z,5.00
2022-10-09T04:55:45.925Z,5.10
2022-10-09T04:58:13.339Z,4.90
2022-10-09T05:00:41.753Z,5.00
2022-10-09T05:03:08.913Z,4.90
2022-10-09T05:05:35.723Z,4.90
2022-10-09T05:08:02.543Z,4.80
2022-10-09T05:10:30.511Z,4.80
2022-10-09T05:12:57.573Z,4.80
2022-10-09T05:15:24.586Z,4.80
2022-10-09T05:17:51.426Z,4.80
2022-10-09T05:20:18.425Z,4.80
2022-10-09T05:22:45.615Z,4.80
2022-10-09T05:25:12.535Z,4.80
2022-10-09T05:27:39.587Z,5.00
2022-10-09T05:30:06.777Z,5.00
2022-10-09T05:32:33.863Z,5.00
2022-10-09T05:35:00.689Z,4.90
2022-10-09T05:37:27.586Z,4.90
2022-10-09T05:39:54.427Z,4.90
2022-10-09T05:42:21.271Z,4.90
2022-10-09T05:44:48.280Z,5.30
2022-10-09T05:47:17.925Z,5.30
2022-10-09T05:49:44.803Z,5.40
2022-10-09T05:52:11.635Z,5.50
2022-10-09T05:54:38.451Z,5.40
2022-10-09T05:57:05.335Z,5.30
2022-10-09T05:59:32.427Z,5.40
2022-10-09T06:01:59.428Z,5.50
2022-10-09T06:04:26.337Z,5.60
2022-10-09T06:06:54.208Z,5.60
2022-10-09T06:09:23.109Z,5.60
2022-10-09T06:11:53.796Z,5.70
2022-10-09T06:14:22.309Z,5.80
2022-10-09T06:16:49.724Z,6.00
2022-10-09T06:19:17.943Z,6.20
2022-10-09T06:21:45.576Z,6.20
2022-10-09T06:24:28.342Z,6.30
2022-10-09T06:26:56.426Z,6.50
2022-10-09T06:29:23.227Z,6.60
2022-10-09T06:31:50.125Z,6.80
2022-10-09T06:34:16.896Z,6.90
2022-10-09T06:36:43.897Z,7.10
2022-10-09T06:39:10.783Z,7.10
2022-10-09T06:41:37.727Z,7.10
2022-10-09T06:44:22.684Z,7.20
2022-10-09T06:46:49.625Z,7.30
2022-10-09T06:49:16.574Z,7.30
2022-10-09T06:51:43.507Z,7.50
2022-10-09T06:54:11.558Z,7.50
2022-10-09T06:56:38.531Z,7.70
2022-10-09T06:59:06.363Z,7.80
2022-10-09T07:01:34.032Z,7.90
2022-10-09T07:04:04.008Z,8.10
2022-10-09T07:06:31.511Z,8.20
2022-10-09T07:08:59.370Z,8.50
2022-10-09T07:11:27.428Z,8.80
2022-10-09T07:13:55.898Z,9.50
2022-10-09T07:16:24.383Z,10.30
2022-10-09T07:18:51.572Z,10.90
2022-10-09T07:21:18.394Z,11.30
2022-10-09T07:23:45.765Z,11.70
2022-10-09T07:26:23.899Z,12.10
2022-10-09T07:28:51.301Z,12.40
2022-10-09T07:31:18.274Z,12.70
2022-10-09T07:33:51.987Z,13.00
2022-10-09T07:36:18.988Z,13.30
2022-10-09T07:38:50.024Z,13.70
2022-10-09T07:41:16.909Z,13.60
2022-10-09T07:43:43.991Z,14.00
2022-10-09T07:46:12.027Z,14.10
2022-10-09T07:48:39.125Z,14.10
2022-10-09T07:51:09.095Z,13.90
2022-10-09T07:53:36.223Z,14.00
2022-10-09T07:56:04.488Z,14.30
2022-10-09T07:58:31.814Z,14.20
2022-10-09T08:01:06.016Z,14.60
2022-10-09T08:03:33.325Z,15.20
2022-10-09T08:06:00.178Z,15.50
2022-10-09T08:08:27.104Z,16.20
2022-10-09T08:10:53.888Z,16.00
2022-10-09T08:13:20.756Z,15.80
2022-10-09T08:15:47.598Z,15.80
2022-10-09T08:18:14.495Z,15.90
2022-10-09T08:20:41.401Z,16.30
2022-10-09T08:23:08.291Z,16.60
2022-10-09T08:25:36.345Z,16.60
2022-10-09T08:28:04.094Z,16.80
2022-10-09T08:30:30.924Z,16.70
2022-10-09T08:32:57.812Z,17.20
2022-10-09T08:35:24.626Z,16.80
2022-10-09T08:37:51.519Z,17.00
2022-10-09T08:40:41.299Z,17.70
2022-10-09T08:43:11.160Z,18.70
2022-10-09T08:45:39.150Z,18.60
2022-10-09T08:48:07.767Z,19.30
2022-10-09T08:50:38.066Z,18.60
2022-10-09T08:53:24.112Z,18.30
2022-10-09T08:55:56.020Z,18.30
2022-10-09T08:58:25.017Z,18.20
2022-10-09T09:00:54.844Z,19.30
2022-10-09T09:03:27.589Z,19.50
2022-10-09T09:05:57.298Z,19.60
2022-10-09T09:08:36.179Z,18.80
2022-10-09T09:11:22.003Z,18.80
2022-10-09T09:14:07.918Z,19.30
2022-10-09T09:16:50.452Z,20.10
2022-10-09T09:19:36.027Z,19.80
2022-10-09T09:22:03.159Z,20.10
2022-10-09T09:24:35.479Z,20.90
2022-10-09T09:27:04.021Z,21.20
2022-10-09T09:29:35.248Z,21.40
2022-10-09T09:32:02.547Z,21.60
2022-10-09T09:34:34.746Z,21.60
2022-10-09T09:37:01.833Z,21.40
2022-10-09T09:42:18.814Z,21.80
2022-10-09T09:44:51.759Z,21.50
2022-10-09T09:47:22.386Z,21.80
2022-10-09T09:49:52.848Z,22.30
2022-10-09T09:52:19.747Z,23.50
2022-10-09T09:54:49.668Z,23.10
2022-10-09T09:57:22.916Z,23.00
2022-10-09T09:59:49.895Z,22.40
2022-10-09T10:02:19.787Z,22.40
2022-10-09T10:04:55.449Z,22.60
2022-10-09T10:07:31.929Z,22.20
2022-10-09T10:10:05.468Z,22.60
2022-10-09T10:12:32.549Z,23.20
2022-10-09T10:14:59.470Z,24.30
2022-10-09T10:17:28.535Z,24.30
2022-10-09T10:19:55.406Z,23.40
2022-10-09T10:22:26.334Z,23.30
2022-10-09T10:24:54.975Z,23.50
2022-10-09T10:27:27.342Z,23.50
2022-10-09T10:29:59.325Z,23.20
2022-10-09T10:32:32.903Z,23.30
2022-10-09T10:35:04.240Z,23.10
2022-10-09T10:37:31.090Z,23.70
2022-10-09T10:40:30.107Z,23.70
2022-10-09T10:43:15.761Z,23.70
2022-10-09T10:45:42.690Z,23.00
2022-10-09T10:48:29.746Z,23.40
2022-10-09T10:51:15.356Z,23.50
2022-10-09T10:54:01.099Z,23.60
2022-10-09T10:56:28.028Z,22.80
2022-10-09T10:59:18.153Z,22.80
2022-10-09T11:02:04.111Z,23.80
2022-10-09T11:04:49.613Z,23.30
2022-10-09T11:07:35.326Z,22.90
2022-10-09T11:10:05.164Z,23.10
2022-10-09T11:12:48.531Z,24.30
2022-10-09T11:15:27.392Z,24.00
2022-10-09T11:18:10.025Z,25.50
2022-10-09T11:20:36.807Z,25.70
2022-10-09T11:23:22.112Z,26.00
2022-10-09T11:26:01.795Z,25.50
2022-10-09T11:28:30.574Z,24.30
2022-10-09T11:31:20.783Z,25.60
2022-10-09T11:33:52.361Z,25.80
2022-10-09T11:36:22.279Z,25.20
2022-10-09T11:38:53.309Z,23.90
2022-10-09T11:41:20.368Z,24.40
2022-10-09T11:43:53.359Z,25.20
2022-10-09T11:46:20.312Z,25.40
2022-10-09T11:49:05.955Z,25.10
2022-10-09T11:51:37.980Z,25.80
2022-10-09T11:54:05.628Z,25.30
2022-10-09T11:56:32.727Z,24.70
2022-10-09T11:59:00.960Z,24.60
2022-10-09T12:01:41.204Z,24.30
2022-10-09T12:04:08.164Z,24.90
2022-10-09T12:06:50.012Z,24.90
2022-10-09T12:09:37.242Z,24.80
2022-10-09T12:12:16.547Z,24.30
2022-10-09T12:14:44.968Z,24.10
2022-10-09T12:17:23.968Z,24.70
2022-10-09T12:20:00.780Z,25.60
2022-10-09T12:23:01.478Z,26.50
2022-10-09T12:25:40.845Z,25.80
2022-10-09T12:28:19.951Z,24.60
2022-10-09T12:30:49.157Z,23.90
2022-10-09T12:33:34.128Z,25.00
2022-10-09T12:36:16.605Z,25.10
2022-10-09T12:38:43.634Z,25.80
2022-10-09T12:41:35.933Z,26.50
2022-10-09T12:44:06.347Z,27.70
2022-10-09T12:46:39.045Z,28.10
2022-10-09T12:49:18.926Z,28.40
2022-10-09T12:51:56.371Z,28.20
2022-10-09T12:54:25.327Z,28.00
2022-10-09T12:56:54.755Z,27.40
2022-10-09T12:59:24.142Z,27.60
2022-10-09T13:01:55.711Z,28.30
2022-10-09T13:04:33.593Z,29.20
2022-10-09T13:07:05.636Z,30.10
2022-10-09T13:09:40.555Z,30.40
2022-10-09T13:12:07.634Z,30.50
2022-10-09T13:14:58.830Z,29.40
2022-10-09T13:17:43.705Z,30.10
2022-10-09T13:20:17.089Z,29.80
2022-10-09T13:23:00.859Z,28.30
2022-10-09T13:25:37.681Z,28.20
2022-10-09T13:28:05.378Z,29.40
2022-10-09T13:30:32.680Z,29.20
2022-10-09T13:32:59.795Z,29.30
2022-10-09T13:35:26.707Z,29.00
2022-10-09T13:37:53.776Z,29.30
2022-10-09T13:40:22.133Z,28.60
2022-10-09T13:42:59.821Z,30.30
2022-10-09T13:45:27.067Z,29.90
2022-10-09T13:47:54.123Z,29.60
2022-10-09T13:50:21.288Z,28.80
2022-10-09T13:52:48.286Z,28.40
2022-10-09T13:55:15.513Z,28.10
2022-10-09T13:57:42.511Z,28.30
2022-10-09T14:00:10.228Z,28.00
2022-10-09T14:02:43.328Z,27.70
2022-10-09T14:05:10.708Z,28.40
2022-10-09T14:07:37.652Z,27.80
2022-10-09T14:10:05.081Z,28.10
2022-10-09T14:12:32.146Z,28.90
2022-10-09T14:14:59.189Z,28.70
2022-10-09T14:17:26.380Z,29.90
2022-10-09T14:19:53.464Z,29.10
2022-10-09T14:22:20.422Z,29.30
2022-10-09T14:24:47.785Z,29.40
2022-10-09T14:27:14.797Z,28.70
2022-10-09T14:29:41.820Z,28.40
2022-10-09T14:32:08.781Z,27.60
2022-10-09T14:34:35.832Z,27.30
2022-10-09T14:37:07.346Z,28.50
2022-10-09T14:39:43.704Z,29.00
2022-10-09T14:42:10.981Z,27.70
2022-10-09T14:44:37.885Z,26.60
2022-10-09T14:47:04.927Z,25.20
2022-10-09T14:49:32.014Z,23.60
2022-10-09T14:51:58.986Z,22.70
2022-10-09T14:54:25.901Z,22.10
2022-10-09T14:56:52.879Z,22.00
2022-10-09T14:59:19.842Z,21.40
2022-10-09T15:01:46.799Z,20.90
2022-10-09T15:04:15.112Z,20.60
2022-10-09T15:06:42.051Z,20.10
2022-10-09T15:09:08.868Z,19.50
2022-10-09T15:11:36.092Z,19.20
2022-10-09T15:14:03.053Z,19.10
2022-10-09T15:16:29.872Z,19.10
2022-10-09T15:18:56.941Z,19.20
2022-10-09T15:21:28.551Z,19.40
2022-10-09T15:23:56.559Z,19.10
2022-10-09T15:26:24.110Z,18.90
2022-10-09T15:28:51.210Z,18.90
2022-10-09T15:31:27.359Z,18.70
2022-10-09T15:33:55.190Z,18.70
2022-10-09T15:36:22.764Z,18.50
2022-10-09T15:38:50.007Z,18.70
2022-10-09T15:41:27.117Z,18.70
2022-10-09T15:43:55.676Z,18.80
2022-10-09T15:46:22.891Z,18.50
2022-10-09T15:48:49.984Z,18.20
2022-10-09T15:51:17.240Z,17.90
2022-10-09T15:53:45.088Z,17.80
2022-10-09T15:56:13.191Z,17.40
2022-10-09T15:58:40.468Z,17.10
2022-10-09T16:01:08.551Z,16.90
2022-10-09T16:03:37.237Z,16.90
2022-10-09T16:06:05.262Z,16.80
2022-10-09T16:08:32.455Z,16.60
2022-10-09T16:10:59.507Z,16.50
2022-10-09T16:13:27.007Z,16.40
2022-10-09T16:15:54.052Z,16.20
2022-10-09T16:18:22.127Z,16.20
2022-10-09T16:20:49.406Z,16.10
2022-10-09T16:23:16.590Z,16.00
2022-10-09T16:25:43.896Z,16.00
2022-10-09T16:28:11.598Z,15.90
2022-10-09T16:30:42.981Z,15.80
2022-10-09T16:33:12.701Z,15.60
2022-10-09T16:35:39.942Z,15.50
2022-10-09T16:38:06.942Z,15.50
2022-10-09T16:40:57.291Z,15.40
2022-10-09T16:43:20.790Z,15.30
2022-10-09T16:45:47.595Z,15.10
2022-10-09T16:48:14.351Z,15.00
2022-10-09T16:50:41.865Z,15.10
2022-10-09T16:53:08.712Z,14.90
2022-10-09T16:55:35.886Z,14.80
2022-10-09T16:58:02.686Z,14.80
2022-10-09T17:00:29.697Z,14.70
2022-10-09T17:02:56.920Z,14.70
2022-10-09T17:05:25.502Z,14.70
2022-10-09T17:07:52.786Z,14.70
2022-10-09T17:10:19.914Z,14.60
2022-10-09T17:12:46.726Z,14.60
2022-10-09T17:15:13.698Z,14.40
2022-10-09T17:17:40.998Z,14.40
2022-10-09T17:20:08.243Z,14.30
2022-10-09T17:22:35.114Z,14.20
2022-10-09T17:25:02.533Z,14.10
2022-10-09T17:27:29.333Z,14.00
2022-10-09T17:29:56.174Z,14.00
2022-10-09T17:32:23.059Z,13.90
2022-10-09T17:34:50.582Z,13.70
2022-10-09T17:37:17.681Z,13.50
2022-10-09T17:39:48.525Z,13.50
2022-10-09T17:42:18.132Z,13.40
2022-10-09T17:44:44.911Z,13.40
2022-10-09T17:47:11.870Z,13.40
2022-10-09T17:49:38.656Z,13.30
2022-10-09T17:52:05.563Z,13.40
2022-10-09T17:54:32.408Z,13.40
2022-10-09T17:57:01.269Z,13.30
2022-10-09T17:59:28.353Z,13.10
2022-10-09T18:01:55.165Z,13.00
2022-10-09T18:04:22.180Z,12.90
2022-10-09T18:06:49.204Z,12.80
2022-10-09T18:09:16.036Z,12.60
2022-10-09T18:11:42.896Z,12.70
2022-10-09T18:14:09.895Z,12.80
2022-10-09T18:16:38.122Z,12.60
2022-10-09T18:19:06.608Z,12.40
2022-10-09T18:21:34.487Z,12.40
2022-10-09T18:24:01.314Z,12.40
2022-10-09T18:26:28.171Z,12.40
2022-10-09T18:28:55.072Z,12.20
2022-10-09T18:31:23.715Z,12.10
2022-10-09T18:33:50.747Z,12.10
2022-10-09T18:36:22.128Z,12.00
2022-10-09T18:38:50.466Z,11.90
2022-10-09T18:41:18.171Z,11.80
2022-10-09T18:43:45.660Z,11.80
2022-10-09T18:46:12.961Z,11.70
2022-10-09T18:48:40.851Z,11.60
2022-10-09T18:51:09.075Z,11.70
2022-10-09T18:53:37.633Z,11.60
2022-10-09T18:56:04.766Z,11.60
2022-10-09T18:58:32.297Z,11.70
2022-10-09T19:00:59.140Z,11.60
2022-10-09T19:03:26.047Z,11.40
2022-10-09T19:05:52.863Z,11.50
2022-10-09T19:08:19.939Z,11.50
2022-10-09T19:10:53.020Z,11.60
2022-10-09T19:13:20.603Z,11.40
2022-10-09T19:15:54.548Z,11.30
2022-10-09T19:18:22.219Z,11.20
2022-10-09T19:20:49.080Z,11.20
2022-10-09T19:23:16.377Z,11.10
2022-10-09T19:25:50.724Z,11.20
2022-10-09T19:28:18.102Z,11.30
2022-10-09T19:30:45.403Z,11.30
2022-10-09T19:33:12.322Z,11.30
2022-10-09T19:35:48.976Z,11.20
2022-10-09T19:38:16.163Z,11.10
2022-10-09T19:40:43.197Z,11.00
2022-10-09T19:43:10.507Z,11.00
2022-10-09T19:45:37.720Z,11.00
2022-10-09T19:48:04.801Z,10.90
2022-10-09T19:50:31.617Z,10.80
2022-10-09T19:52:58.756Z,10.80
2022-10-09T19:55:30.202Z,10.90
2022-10-09T19:57:58.096Z,10.90
2022-10-09T20:00:25.026Z,10.80
2022-10-09T20:02:52.321Z,10.80
2022-10-09T20:05:19.655Z,10.80
2022-10-09T20:07:46.721Z,10.80
2022-10-09T20:10:13.573Z,10.70
2022-10-09T20:12:40.439Z,10.70
2022-10-09T20:15:08.131Z,10.50
2022-10-09T20:17:35.105Z,10.50
2022-10-09T20:20:03.549Z,10.40
2022-10-09T20:22:30.395Z,10.40
2022-10-09T20:24:57.215Z,10.40
2022-10-09T20:27:23.994Z,10.40
2022-10-09T20:29:52.258Z,10.40
2022-10-09T20:32:19.098Z,10.50
2022-10-09T20:34:45.972Z,10.50
2022-10-09T20:37:12.742Z,10.40
2022-10-09T20:39:39.604Z,10.40
2022-10-09T20:42:06.455Z,10.40
2022-10-09T20:44:33.407Z,10.30
2022-10-09T20:47:00.556Z,10.40
2022-10-09T20:49:27.432Z,10.40
2022-10-09T20:51:54.914Z,10.40
2022-10-09T20:54:22.200Z,10.40
2022-10-09T20:56:49.579Z,10.30
2022-10-09T20:59:17.169Z,10.30
2022-10-09T21:01:44.468Z,10.40
2022-10-09T21:04:12.190Z,10.30
2022-10-09T21:06:39.023Z,10.30
2022-10-09T21:09:06.044Z,10.40
2022-10-09T21:11:34.913Z,10.40
2022-10-09T21:14:02.324Z,10.60
2022-10-09T21:16:29.468Z,10.60
2022-10-09T21:18:57.240Z,10.70
2022-10-09T21:21:24.167Z,10.70
2022-10-09T21:23:51.855Z,10.80
2022-10-09T21:26:19.369Z,10.90
2022-10-09T21:28:46.775Z,11.00
2022-10-09T21:31:24.466Z,11.20
2022-10-09T21:33:51.679Z,11.30
2022-10-09T21:36:18.427Z,11.20
2022-10-09T21:38:45.241Z,11.30
2022-10-09T21:41:12.011Z,11.20
2022-10-09T21:43:38.863Z,11.30
2022-10-09T21:46:05.663Z,11.40
2022-10-09T21:48:32.592Z,11.40
2022-10-09T21:50:59.430Z,11.40
2022-10-09T21:53:26.289Z,11.50
2022-10-09T21:55:53.052Z,11.50
2022-10-09T21:58:19.825Z,11.50
2022-10-09T22:00:46.747Z,11.30
2022-10-09T22:03:13.687Z,11.30
2022-10-09T22:05:40.783Z,11.10
2022-10-09T22:08:07.668Z,11.10
2022-10-09T22:10:34.471Z,11.00
2022-10-09T22:13:01.247Z,10.80
2022-10-09T22:15:28.064Z,10.70
2022-10-09T22:17:54.919Z,10.80
2022-10-09T22:20:21.766Z,10.60
2022-10-09T22:22:48.904Z,10.60
2022-10-09T22:25:15.915Z,10.40
2022-10-09T22:27:42.692Z,10.20
2022-10-09T22:30:09.806Z,10.20
2022-10-09T22:32:36.653Z,10.10
2022-10-09T22:35:03.621Z,10.00
2022-10-09T22:37:30.496Z,10.20
2022-10-09T22:39:57.287Z,10.10
2022-10-09T22:42:24.068Z,10.10
2022-10-09T22:44:50.865Z,9.90
2022-10-09T22:47:17.727Z,9.90
2022-10-09T22:49:44.627Z,9.80
2022-10-09T22:52:11.459Z,9.70
2022-10-09T22:54:38.239Z,9.70
2022-10-09T22:57:05.018Z,9.50
2022-10-09T22:59:32.701Z,9.60
2022-10-09T23:02:00.523Z,9.60
2022-10-09T23:04:28.584Z,9.60
2022-10-09T23:06:56.632Z,9.40
2022-10-09T23:09:24.899Z,9.50
2022-10-09T23:11:51.915Z,9.40
2022-10-09T23:14:18.834Z,9.40
2022-10-09T23:16:45.714Z,9.30
2022-10-09T23:19:12.590Z,9.40
2022-10-09T23:21:40.480Z,9.50
2022-10-09T23:24:07.671Z,9.30
2022-10-09T23:26:35.136Z,9.20
2022-10-09T23:29:04.339Z,9.00
2022-10-09T23:31:31.573Z,9.00
2022-10-09T23:33:58.734Z,9.10
2022-10-09T23:36:26.841Z,9.00
2022-10-09T23:38:54.095Z,9.20
2022-10-09T23:41:22.481Z,9.30
2022-10-09T23:43:49.880Z,9.30
2022-10-09T23:46:21.160Z,9.30
2022-10-09T23:48:48.199Z,9.20
2022-10-09T23:51:15.598Z,9.10
2022-10-09T23:53:42.761Z,9.10
2022-10-09T23:56:26.134Z,9.10
2022-10-09T23:58:53.754Z,9.00
